Time;durP1;ratioP1;P1;durP2;ratioP2;P2;SDS_P1;SDS_P2;PMS_P1;PMS_P2;Temp;Humidity;BMP_temperature;BMP_pressure;BME280_temperature;BME280_humidity;BME280_pressure;Samples;Min_cycle;Max_cycle;Signal;HPM_P1;HPM_P2
2021/12/19 00:02:30;;;;;;;317.30;51.23;;;8.30;99.90;;;;;;5096081;28;20433;-76
2021/12/19 00:10:46;;;;;;;160.50;18.13;;;8.30;99.90;;;;;;5033592;28;20442;-76
2021/12/19 00:13:14;;;;;;;211.40;29.80;;;8.30;99.90;;;;;;5069027;28;20452;-77
2021/12/19 00:15:42;;;;;;;241.93;30.87;;;8.40;99.90;;;;;;5082642;28;20475;-76
2021/12/19 00:18:10;;;;;;;213.63;32.97;;;8.40;99.90;;;;;;5075385;28;20552;-77
2021/12/19 00:20:38;;;;;;;204.13;26.97;;;8.40;99.90;;;;;;5092952;28;20490;-76
2021/12/19 00:23:27;;;;;;;299.33;42.50;;;8.30;99.90;;;;;;5095964;28;20881;-77
2021/12/19 00:25:57;;;;;;;257.00;35.47;;;8.40;99.90;;;;;;5094121;28;20447;-76
2021/12/19 00:28:26;;;;;;;228.80;25.93;;;8.40;99.90;;;;;;5093288;28;20540;-77
2021/12/19 00:30:54;;;;;;;358.80;38.50;;;8.40;99.90;;;;;;5073815;28;20456;-77
2021/12/19 00:33:22;;;;;;;346.83;40.13;;;8.40;99.90;;;;;;5075526;28;20448;-77
2021/12/19 00:35:50;;;;;;;177.07;38.23;;;8.40;99.90;;;;;;5074099;28;20810;-77
2021/12/19 00:38:18;;;;;;;123.30;27.60;;;8.40;99.90;;;;;;5093481;28;20559;-76
2021/12/19 00:40:47;;;;;;;354.97;38.60;;;8.40;99.90;;;;;;5093917;28;20435;-76
2021/12/19 00:43:25;;;;;;;172.17;24.73;;;8.40;99.90;;;;;;5093831;28;20989;-76
2021/12/19 00:45:54;;;;;;;216.87;29.67;;;8.40;99.90;;;;;;5075199;28;20435;-76
2021/12/19 00:48:22;;;;;;;243.13;26.90;;;8.40;99.90;;;;;;5073403;28;20464;-77
2021/12/19 00:50:50;;;;;;;62.47;17.83;;;8.40;99.90;;;;;;5073749;28;20483;-76
2021/12/19 00:53:19;;;;;;;223.43;31.67;;;8.40;99.90;;;;;;5073506;28;20452;-76
2021/12/19 00:55:47;;;;;;;370.13;38.23;;;8.40;99.90;;;;;;5073684;28;20954;-76
2021/12/19 00:58:17;;;;;;;385.47;47.73;;;8.40;99.90;;;;;;5074637;28;20468;-76
2021/12/19 01:00:46;;;;;;;144.37;30.53;;;8.40;99.90;;;;;;5078306;28;20458;-77
2021/12/19 01:03:14;;;;;;;216.30;34.00;;;8.40;99.90;;;;;;5093567;28;20445;-77
2021/12/19 01:05:43;;;;;;;262.07;30.90;;;8.40;99.90;;;;;;5090103;28;20528;-76
2021/12/19 01:08:12;;;;;;;207.37;35.87;;;8.40;99.90;;;;;;5073022;28;20852;-76
2021/12/19 01:10:42;;;;;;;282.70;42.10;;;8.40;99.90;;;;;;5073173;28;20453;-76
2021/12/19 01:13:11;;;;;;;286.67;33.43;;;8.40;99.90;;;;;;5073055;28;20463;-76
2021/12/19 01:15:41;;;;;;;213.97;23.47;;;8.40;99.90;;;;;;5074121;28;20460;-77
2021/12/19 01:18:10;;;;;;;385.03;40.93;;;8.40;99.90;;;;;;5073530;28;20472;-78
2021/12/19 01:20:41;;;;;;;278.87;38.63;;;8.40;99.90;;;;;;5073780;28;20584;-76
2021/12/19 01:23:10;;;;;;;268.67;31.33;;;8.40;99.90;;;;;;5073008;28;20925;-76
2021/12/19 01:25:38;;;;;;;259.97;38.53;;;8.40;99.90;;;;;;5073213;28;20530;-77
2021/12/19 01:28:06;;;;;;;126.87;20.00;;;8.40;99.90;;;;;;5072795;28;20501;-77
2021/12/19 01:30:35;;;;;;;190.43;24.47;;;8.30;99.90;;;;;;5072865;28;20950;-76
2021/12/19 01:33:05;;;;;;;459.93;55.33;;;8.40;99.90;;;;;;5086767;28;20496;-76
2021/12/19 01:35:33;;;;;;;284.43;43.73;;;8.40;99.90;;;;;;5073253;28;20543;-76
2021/12/19 01:38:02;;;;;;;370.73;38.87;;;8.30;99.90;;;;;;5072731;28;20468;-77
2021/12/19 01:40:30;;;;;;;358.20;45.60;;;8.40;99.90;;;;;;5074026;28;20446;-77
2021/12/19 01:42:59;;;;;;;229.60;36.23;;;8.30;99.90;;;;;;5073857;28;20473;-76
2021/12/19 01:45:29;;;;;;;305.37;38.27;;;8.40;99.90;;;;;;5072456;28;20494;-76
2021/12/19 01:47:58;;;;;;;306.13;50.20;;;8.40;99.90;;;;;;5072339;28;20477;-76
2021/12/19 01:50:29;;;;;;;264.23;41.30;;;8.40;99.90;;;;;;5077268;28;20503;-77
2021/12/19 01:52:58;;;;;;;174.47;25.03;;;8.40;99.90;;;;;;5074128;28;20999;-78
2021/12/19 01:55:26;;;;;;;277.53;24.90;;;8.40;99.90;;;;;;5074110;28;20535;-76
2021/12/19 01:57:54;;;;;;;287.60;27.03;;;8.40;99.90;;;;;;5074036;28;20474;-76
2021/12/19 02:00:25;;;;;;;175.13;22.40;;;8.40;99.90;;;;;;5072843;28;20450;-76
2021/12/19 02:02:55;;;;;;;184.67;29.43;;;8.30;99.90;;;;;;5078039;28;20454;-76
2021/12/19 02:05:25;;;;;;;227.57;24.30;;;8.30;99.90;;;;;;5094175;28;20865;-76
2021/12/19 02:07:57;;;;;;;240.40;44.43;;;8.30;99.90;;;;;;5093814;28;20541;-77
2021/12/19 02:10:27;;;;;;;354.17;48.13;;;8.30;99.90;;;;;;5088279;28;20444;-76
2021/12/19 02:12:58;;;;;;;265.30;41.20;;;8.30;99.90;;;;;;5084952;28;21028;-77
2021/12/19 02:15:29;;;;;;;312.00;38.77;;;8.30;99.90;;;;;;5071981;28;20889;-76
2021/12/19 02:18:00;;;;;;;225.03;29.77;;;8.30;99.90;;;;;;5073521;28;20508;-76
2021/12/19 02:20:34;;;;;;;286.53;35.50;;;8.30;99.90;;;;;;5072154;28;20432;-77
2021/12/19 02:23:03;;;;;;;187.07;24.77;;;8.30;99.90;;;;;;5080628;28;20473;-76
2021/12/19 02:25:32;;;;;;;224.20;29.27;;;8.30;99.90;;;;;;5092199;28;20957;-77
2021/12/19 02:28:01;;;;;;;292.07;32.47;;;8.30;99.90;;;;;;5092148;28;20917;-76
2021/12/19 02:30:29;;;;;;;227.03;38.87;;;8.30;99.90;;;;;;5077691;28;20474;-76
2021/12/19 02:32:57;;;;;;;198.37;38.17;;;8.30;99.90;;;;;;5074686;28;20443;-76
2021/12/19 02:35:30;;;;;;;281.90;39.37;;;8.30;99.90;;;;;;5092585;28;20841;-78
2021/12/19 02:49:26;;;;;;;295.67;29.03;;;8.30;99.90;;;;;;5072025;28;20448;-77
2021/12/19 02:51:56;;;;;;;287.40;23.97;;;8.30;99.90;;;;;;5085805;28;20447;-76
2021/12/19 02:54:28;;;;;;;228.20;35.67;;;8.30;99.90;;;;;;5092020;28;20822;-76
2021/12/19 02:56:57;;;;;;;380.27;42.77;;;8.30;99.90;;;;;;5084811;28;20546;-77
2021/12/19 02:59:25;;;;;;;143.17;23.97;;;8.30;99.90;;;;;;5072259;28;20942;-76
2021/12/19 03:01:54;;;;;;;279.20;36.33;;;8.30;99.90;;;;;;5072341;28;20449;-76
2021/12/19 03:04:22;;;;;;;312.00;42.43;;;8.30;99.90;;;;;;5082972;28;20462;-76
2021/12/19 03:06:51;;;;;;;380.63;44.20;;;8.30;99.90;;;;;;5088742;28;20479;-76
2021/12/19 03:09:36;;;;;;;218.90;32.77;;;8.30;99.90;;;;;;5081900;28;20559;-76
2021/12/19 03:12:20;;;;;;;340.67;34.27;;;8.30;99.90;;;;;;5071645;28;20450;-76
2021/12/19 03:20:19;;;;;;;284.20;40.53;;;8.30;99.90;;;;;;5082642;28;20468;-77
2021/12/19 03:22:48;;;;;;;283.50;57.37;;;8.30;99.90;;;;;;5077117;28;20444;-77
2021/12/19 03:25:16;;;;;;;445.63;52.53;;;8.30;99.90;;;;;;5080486;28;20526;-76
2021/12/19 03:27:46;;;;;;;254.73;37.47;;;8.30;99.90;;;;;;5096169;28;20569;-77
2021/12/19 03:30:14;;;;;;;146.40;29.00;;;8.30;99.90;;;;;;5097840;28;20439;-77
2021/12/19 03:32:43;;;;;;;239.37;43.27;;;8.30;99.90;;;;;;5097379;28;20431;-77
2021/12/19 03:35:12;;;;;;;289.23;42.93;;;8.30;99.90;;;;;;5096019;28;20455;-78
2021/12/19 03:37:40;;;;;;;182.03;33.33;;;8.30;99.90;;;;;;5093478;28;20474;-78
2021/12/19 03:40:13;;;;;;;211.27;39.97;;;8.30;99.90;;;;;;5076466;28;20914;-79
2021/12/19 03:42:46;;;;;;;240.73;38.67;;;8.30;99.90;;;;;;5075888;28;20793;-79
2021/12/19 03:45:16;;;;;;;247.90;38.97;;;8.40;99.90;;;;;;5074748;28;20971;-77
2021/12/19 03:47:46;;;;;;;207.80;30.57;;;8.30;99.90;;;;;;5074733;28;20479;-77
2021/12/19 03:50:18;;;;;;;228.13;38.77;;;8.30;99.90;;;;;;5080172;28;20484;-77
2021/12/19 03:52:47;;;;;;;184.37;30.60;;;8.30;99.90;;;;;;5076180;28;20493;-78
2021/12/19 03:55:15;;;;;;;334.57;43.83;;;8.30;99.90;;;;;;5086635;28;20551;-77
2021/12/19 03:57:45;;;;;;;271.67;40.23;;;8.30;99.90;;;;;;5074546;28;21029;-77
2021/12/19 04:00:16;;;;;;;557.97;72.73;;;8.30;99.90;;;;;;5074443;28;20466;-77
2021/12/19 04:02:46;;;;;;;183.93;40.00;;;8.30;99.90;;;;;;5076503;28;20459;-78
2021/12/19 04:05:14;;;;;;;188.97;41.97;;;8.30;99.90;;;;;;5074376;28;20857;-76
2021/12/19 04:07:42;;;;;;;193.53;41.03;;;8.30;99.90;;;;;;5074014;28;20478;-78
2021/12/19 04:10:11;;;;;;;310.90;53.63;;;8.30;99.90;;;;;;5074443;28;20449;-77
2021/12/19 04:12:39;;;;;;;265.57;50.23;;;8.30;99.90;;;;;;5075518;28;20531;-77
2021/12/19 04:15:10;;;;;;;120.73;25.50;;;8.30;99.90;;;;;;5075468;28;20436;-77
2021/12/19 04:17:39;;;;;;;150.40;42.13;;;8.30;99.90;;;;;;5075750;28;20496;-77
2021/12/19 04:20:08;;;;;;;226.53;35.17;;;8.30;99.90;;;;;;5089391;28;20439;-76
2021/12/19 04:22:37;;;;;;;209.90;35.87;;;8.30;99.90;;;;;;5073930;28;20437;-77
2021/12/19 04:25:06;;;;;;;253.33;42.03;;;8.30;99.90;;;;;;5083983;28;20454;-77
2021/12/19 04:27:36;;;;;;;351.00;49.40;;;8.30;99.90;;;;;;5091114;28;20472;-77
2021/12/19 04:30:06;;;;;;;316.83;54.93;;;8.30;99.90;;;;;;5075533;28;20797;-77
2021/12/19 04:32:41;;;;;;;287.27;40.63;;;8.20;99.90;;;;;;5073828;28;20433;-77
2021/12/19 04:35:10;;;;;;;445.07;67.20;;;8.20;99.90;;;;;;5073958;28;20441;-77
2021/12/19 04:38:10;;;;;;;221.17;35.93;;;8.20;99.90;;;;;;5073746;28;20474;-77
2021/12/19 04:40:45;;;;;;;283.27;31.30;;;8.20;99.90;;;;;;5074811;28;20529;-77
2021/12/19 04:51:56;;;;;;;186.67;25.67;;;8.20;99.90;;;;;;5074808;28;20444;-77
2021/12/19 04:54:34;;;;;;;153.63;20.63;;;8.20;99.90;;;;;;5073451;28;20463;-77
2021/12/19 04:57:20;;;;;;;323.80;39.73;;;8.20;99.90;;;;;;5073259;28;20611;-77
2021/12/19 04:59:54;;;;;;;230.17;29.33;;;8.20;99.90;;;;;;5075681;28;20431;-78
2021/12/19 05:02:45;;;;;;;191.60;30.00;;;8.20;99.90;;;;;;5076395;28;20450;-75
2021/12/19 05:16:16;;;;;;;206.33;26.17;;;8.20;99.90;;;;;;5073014;28;20475;-77
2021/12/19 05:18:46;;;;;;;126.20;24.77;;;8.20;99.90;;;;;;5072860;28;20543;-79
2021/12/19 05:21:18;;;;;;;293.80;47.07;;;8.20;99.90;;;;;;5083061;28;20442;-77
2021/12/19 05:24:15;;;;;;;139.63;25.13;;;8.20;99.90;;;;;;5083865;28;20481;-77
2021/12/19 05:26:43;;;;;;;295.00;49.30;;;8.20;99.90;;;;;;5072666;28;20468;-77
2021/12/19 05:29:15;;;;;;;254.43;36.73;;;8.20;99.90;;;;;;5072587;28;20475;-77
2021/12/19 05:31:44;;;;;;;159.03;28.67;;;8.20;99.90;;;;;;5074010;28;20933;-77
2021/12/19 05:34:12;;;;;;;138.57;32.33;;;8.20;99.90;;;;;;5073921;28;20452;-77
2021/12/19 05:45:14;;;;;;;205.57;24.57;;;8.20;99.90;;;;;;5074242;28;20539;-77
2021/12/19 05:47:43;;;;;;;176.07;21.37;;;8.20;99.90;;;;;;5073954;28;20545;-77
2021/12/19 05:50:12;;;;;;;141.33;27.30;;;8.20;99.90;;;;;;5086119;28;20472;-78
2021/12/19 05:52:43;;;;;;;294.60;43.53;;;8.10;99.90;;;;;;5073974;28;20437;-75
2021/12/19 05:55:11;;;;;;;160.87;26.47;;;8.20;99.90;;;;;;5073293;28;20977;-76
2021/12/19 05:57:39;;;;;;;154.23;25.23;;;8.10;99.90;;;;;;5072516;28;20473;-75
2021/12/19 06:00:12;;;;;;;139.07;26.10;;;8.20;99.90;;;;;;5072515;28;20973;-75
2021/12/19 06:02:41;;;;;;;208.93;40.63;;;8.20;99.90;;;;;;5073495;28;20538;-76
2021/12/19 06:05:10;;;;;;;167.63;26.40;;;8.10;99.90;;;;;;5072876;28;20497;-76
2021/12/19 06:07:38;;;;;;;175.90;33.33;;;8.20;99.90;;;;;;5072377;28;20979;-76
2021/12/19 06:10:09;;;;;;;215.93;30.93;;;8.20;99.90;;;;;;5073838;28;20477;-76
2021/12/19 06:12:38;;;;;;;282.73;40.07;;;8.10;99.90;;;;;;5072630;28;20802;-76
2021/12/19 06:15:08;;;;;;;333.83;36.93;;;8.10;99.90;;;;;;5073517;28;20462;-77
2021/12/19 06:17:36;;;;;;;229.47;33.10;;;8.10;99.90;;;;;;5073354;28;20465;-76
2021/12/19 06:20:06;;;;;;;329.63;37.37;;;8.10;99.90;;;;;;5074295;28;20515;-78
2021/12/19 06:22:34;;;;;;;364.43;43.23;;;8.10;99.90;;;;;;5088646;28;20549;-77
2021/12/19 06:25:03;;;;;;;214.77;26.93;;;8.10;99.90;;;;;;5081526;28;20448;-77
2021/12/19 06:27:32;;;;;;;163.13;22.00;;;8.10;99.90;;;;;;5073174;28;20541;-76
2021/12/19 06:30:00;;;;;;;291.67;31.20;;;8.10;99.90;;;;;;5073213;28;20468;-77
2021/12/19 06:32:29;;;;;;;188.83;30.20;;;8.10;99.90;;;;;;5072042;28;20451;-77
2021/12/19 06:34:59;;;;;;;132.87;23.83;;;8.00;99.90;;;;;;5072279;28;20823;-77
2021/12/19 06:37:27;;;;;;;207.27;29.43;;;8.10;99.90;;;;;;5089049;28;20473;-77
2021/12/19 06:39:55;;;;;;;209.97;22.03;;;8.10;99.90;;;;;;5073725;28;20442;-78
2021/12/19 06:42:23;;;;;;;255.63;37.60;;;8.00;99.90;;;;;;5073760;28;20539;-77
2021/12/19 06:44:52;;;;;;;219.50;30.17;;;8.00;99.90;;;;;;5071879;28;20448;-75
2021/12/19 06:47:21;;;;;;;224.80;28.97;;;8.10;99.90;;;;;;5071605;28;20478;-75
2021/12/19 06:49:49;;;;;;;134.20;21.83;;;8.10;99.90;;;;;;5071612;28;21011;-76
2021/12/19 06:52:17;;;;;;;195.13;28.30;;;8.00;99.90;;;;;;5071929;28;20946;-75
2021/12/19 06:54:45;;;;;;;299.87;36.53;;;8.00;99.90;;;;;;5075785;28;20932;-77
2021/12/19 06:57:13;;;;;;;143.60;18.13;;;8.00;99.90;;;;;;5076931;28;20460;-77
2021/12/19 06:59:41;;;;;;;216.33;22.80;;;8.00;99.90;;;;;;5076222;28;20476;-77
2021/12/19 07:02:13;;;;;;;150.00;21.60;;;8.00;99.90;;;;;;5088236;28;20449;-77
2021/12/19 07:04:42;;;;;;;130.77;24.93;;;8.00;99.90;;;;;;5077666;28;20443;-76
2021/12/19 07:07:10;;;;;;;189.10;23.93;;;8.00;99.90;;;;;;5077185;28;20461;-75
2021/12/19 07:09:39;;;;;;;268.90;33.30;;;8.00;99.90;;;;;;5075579;28;20468;-77
2021/12/19 07:12:09;;;;;;;192.30;23.67;;;8.00;99.90;;;;;;5076822;28;20484;-77
2021/12/19 07:14:37;;;;;;;260.77;36.80;;;8.00;99.90;;;;;;5075268;28;20471;-76
2021/12/19 07:17:05;;;;;;;255.53;30.30;;;8.00;99.90;;;;;;5075070;28;20473;-76
2021/12/19 07:19:34;;;;;;;289.30;33.77;;;8.00;99.90;;;;;;5076822;28;20436;-76
2021/12/19 07:22:03;;;;;;;155.43;30.80;;;8.00;99.90;;;;;;5077778;28;20446;-77
2021/12/19 07:24:31;;;;;;;107.90;18.70;;;8.00;99.90;;;;;;5076938;28;20557;-75
2021/12/19 07:26:59;;;;;;;162.57;23.97;;;8.00;99.90;;;;;;5075376;28;20844;-78
2021/12/19 07:29:27;;;;;;;275.00;30.87;;;8.00;99.90;;;;;;5075197;28;20975;-78
2021/12/19 07:31:55;;;;;;;276.73;34.80;;;8.00;99.90;;;;;;5082501;28;20451;-77
2021/12/19 07:34:30;;;;;;;189.50;35.50;;;8.00;99.90;;;;;;5096656;28;20952;-77
2021/12/19 07:37:00;;;;;;;193.53;29.10;;;8.00;99.90;;;;;;5095347;28;20478;-77
2021/12/19 07:39:40;;;;;;;89.07;16.87;;;8.00;99.90;;;;;;5096859;28;20459;-77
2021/12/19 07:42:10;;;;;;;171.87;19.37;;;8.00;99.90;;;;;;5095187;28;20447;-77
2021/12/19 07:44:40;;;;;;;275.37;33.83;;;8.00;99.90;;;;;;5095164;28;20475;-77
2021/12/19 07:47:10;;;;;;;194.60;20.77;;;7.90;99.90;;;;;;5095011;28;20473;-77
2021/12/19 07:49:38;;;;;;;178.60;25.80;;;8.00;99.90;;;;;;5096338;28;20952;-77
2021/12/19 07:52:08;;;;;;;173.57;21.03;;;7.90;99.90;;;;;;5096243;28;20520;-77
2021/12/19 07:54:36;;;;;;;185.27;27.13;;;7.90;99.90;;;;;;5095513;28;20803;-77
2021/12/19 07:57:04;;;;;;;112.53;16.40;;;7.90;99.90;;;;;;5095838;28;20985;-77
2021/12/19 07:59:32;;;;;;;175.03;32.07;;;7.90;99.90;;;;;;5095837;28;20499;-77
2021/12/19 08:02:02;;;;;;;275.70;40.93;;;7.90;99.90;;;;;;5094858;28;20802;-76
2021/12/19 08:04:31;;;;;;;215.57;31.50;;;7.90;99.90;;;;;;5094080;28;20475;-77
2021/12/19 08:06:59;;;;;;;213.97;26.67;;;7.90;99.90;;;;;;5089044;28;20466;-78
2021/12/19 08:09:38;;;;;;;277.33;37.47;;;7.90;99.90;;;;;;5094545;28;20483;-78
2021/12/19 08:12:06;;;;;;;250.93;40.53;;;8.00;99.90;;;;;;5096500;28;20432;-77
2021/12/19 08:14:35;;;;;;;275.03;30.87;;;8.00;99.90;;;;;;5098533;28;20541;-77
2021/12/19 08:17:03;;;;;;;252.43;33.10;;;8.00;99.90;;;;;;5096060;28;20565;-77
2021/12/19 08:19:31;;;;;;;91.63;19.30;;;8.00;99.90;;;;;;5094629;28;20457;-76
2021/12/19 08:21:59;;;;;;;247.13;28.77;;;8.00;99.90;;;;;;5078118;28;20445;-78
2021/12/19 08:24:29;;;;;;;192.87;30.57;;;8.00;99.90;;;;;;5075323;28;20484;-77
2021/12/19 08:26:57;;;;;;;136.37;14.97;;;8.00;99.90;;;;;;5075113;28;20462;-77
2021/12/19 08:29:25;;;;;;;154.27;27.93;;;8.00;99.90;;;;;;5073843;28;20457;-77
2021/12/19 08:31:53;;;;;;;208.73;32.87;;;8.00;99.90;;;;;;5073975;28;20470;-76
2021/12/19 08:34:21;;;;;;;185.77;32.17;;;8.00;99.90;;;;;;5074839;28;20456;-77
2021/12/19 08:36:49;;;;;;;216.13;27.33;;;8.00;99.90;;;;;;5090129;28;20463;-77
2021/12/19 08:39:17;;;;;;;171.67;24.47;;;8.00;99.90;;;;;;5082660;28;20539;-77
2021/12/19 08:41:47;;;;;;;113.03;12.30;;;8.00;99.90;;;;;;5075140;28;20467;-77
2021/12/19 08:44:15;;;;;;;129.03;18.93;;;8.00;99.90;;;;;;5075017;28;20543;-77
2021/12/19 08:46:45;;;;;;;184.03;22.30;;;8.00;99.90;;;;;;5087991;28;20478;-76
2021/12/19 08:49:14;;;;;;;114.93;17.90;;;8.00;99.90;;;;;;5073942;28;20793;-77
2021/12/19 08:51:42;;;;;;;87.70;15.10;;;8.00;99.90;;;;;;5073553;28;20473;-76
2021/12/19 08:54:11;;;;;;;151.53;29.80;;;8.00;99.90;;;;;;5073602;28;20455;-77
2021/12/19 08:56:39;;;;;;;258.27;38.07;;;8.00;99.90;;;;;;5073553;28;20464;-77
2021/12/19 08:59:11;;;;;;;173.67;29.93;;;8.00;99.90;;;;;;5073422;28;20456;-77
2021/12/19 09:01:39;;;;;;;274.27;26.57;;;8.10;99.90;;;;;;5073974;28;20787;-77
2021/12/19 09:04:14;;;;;;;90.77;11.03;;;8.10;99.90;;;;;;5076841;28;20519;-76
2021/12/19 09:06:42;;;;;;;143.00;17.87;;;8.00;99.90;;;;;;5074846;28;20509;-77
2021/12/19 09:09:10;;;;;;;247.00;34.30;;;8.00;99.90;;;;;;5085172;28;20456;-77
2021/12/19 09:11:38;;;;;;;246.43;28.73;;;8.10;99.90;;;;;;5075016;28;20468;-76
2021/12/19 09:14:08;;;;;;;186.90;27.60;;;8.10;99.90;;;;;;5073544;28;20527;-76
2021/12/19 09:16:37;;;;;;;258.77;31.13;;;8.10;99.90;;;;;;5074010;28;20458;-77
2021/12/19 09:19:12;;;;;;;168.30;23.40;;;8.00;99.90;;;;;;5074473;28;20527;-76
2021/12/19 09:21:50;;;;;;;235.47;35.10;;;8.10;99.90;;;;;;5073903;28;20944;-76
2021/12/19 09:24:19;;;;;;;78.93;19.83;;;8.10;99.90;;;;;;5079434;28;20585;-76
2021/12/19 09:26:47;;;;;;;184.70;29.13;;;8.10;99.90;;;;;;5073078;28;20562;-76
2021/12/19 09:29:17;;;;;;;119.20;12.80;;;8.10;99.90;;;;;;5073214;28;20574;-76
2021/12/19 09:31:45;;;;;;;178.30;30.07;;;8.10;99.90;;;;;;5073145;28;20482;-76
2021/12/19 09:34:14;;;;;;;279.77;33.63;;;8.10;99.90;;;;;;5076984;28;20453;-76
2021/12/19 09:36:42;;;;;;;257.60;31.30;;;8.10;99.90;;;;;;5072890;28;20505;-75
2021/12/19 09:39:10;;;;;;;186.47;28.33;;;8.10;99.90;;;;;;5073758;28;20491;-76
2021/12/19 09:41:43;;;;;;;195.40;32.70;;;8.10;99.90;;;;;;5073737;28;20441;-75
2021/12/19 09:44:14;;;;;;;249.07;36.47;;;8.20;99.90;;;;;;5074323;28;20436;-75
2021/12/19 09:46:47;;;;;;;116.77;16.17;;;8.10;99.90;;;;;;5074011;28;20546;-76
2021/12/19 09:49:19;;;;;;;137.53;18.13;;;8.10;99.90;;;;;;5072555;28;20547;-76
2021/12/19 09:51:48;;;;;;;174.47;24.70;;;8.10;99.90;;;;;;5072337;28;20565;-76
2021/12/19 09:54:18;;;;;;;204.57;32.40;;;8.10;99.90;;;;;;5072344;28;20441;-75
2021/12/19 09:56:48;;;;;;;226.53;24.73;;;8.10;99.90;;;;;;5073848;28;20475;-75
2021/12/19 09:59:18;;;;;;;150.40;24.97;;;8.10;99.90;;;;;;5073383;28;20431;-76
2021/12/19 10:01:50;;;;;;;252.30;20.07;;;8.10;99.90;;;;;;5088201;28;20822;-76
2021/12/19 10:04:29;;;;;;;177.10;27.13;;;8.10;99.90;;;;;;5092277;28;20446;-76
2021/12/19 10:07:14;;;;;;;204.97;21.63;;;8.20;99.90;;;;;;5092447;28;20478;-76
2021/12/19 10:09:55;;;;;;;233.17;26.30;;;8.20;99.90;;;;;;5084463;28;20524;-77
2021/12/19 10:15:11;;;;;;;92.67;14.13;;;8.20;99.90;;;;;;5075840;28;20815;-76
2021/12/19 10:17:41;;;;;;;163.47;20.00;;;8.20;99.90;;;;;;5092024;28;20482;-76
2021/12/19 10:20:12;;;;;;;123.53;15.80;;;8.20;99.90;;;;;;5091854;28;20449;-76
2021/12/19 10:22:42;;;;;;;142.83;19.93;;;8.20;99.90;;;;;;5092142;28;20444;-76
2021/12/19 10:25:18;;;;;;;131.27;21.77;;;8.20;99.90;;;;;;5092756;28;20966;-77
2021/12/19 10:27:49;;;;;;;192.97;22.77;;;8.20;99.90;;;;;;5093409;28;20516;-76
2021/12/19 10:30:22;;;;;;;213.00;34.97;;;8.30;99.90;;;;;;5089037;28;20822;-75
2021/12/19 10:32:53;;;;;;;347.67;24.50;;;8.30;99.90;;;;;;5081384;28;20481;-78
2021/12/19 10:35:25;;;;;;;173.93;30.87;;;8.30;99.90;;;;;;5072739;28;20465;-77
2021/12/19 10:37:53;;;;;;;415.23;46.27;;;8.30;99.90;;;;;;5073607;28;20468;-78
2021/12/19 10:40:22;;;;;;;276.57;26.57;;;8.30;99.90;;;;;;5073190;28;20535;-78
2021/12/19 10:42:57;;;;;;;345.90;52.00;;;8.30;99.90;;;;;;5074086;28;20910;-77
2021/12/19 10:45:31;;;;;;;308.00;28.90;;;8.40;99.90;;;;;;5077617;28;20548;-77
2021/12/19 10:48:24;;;;;;;381.23;43.03;;;8.40;99.90;;;;;;5072334;28;20528;-77
2021/12/19 10:50:56;;;;;;;196.60;26.03;;;8.40;99.90;;;;;;5075794;28;20448;-78
2021/12/19 10:53:27;;;;;;;234.57;29.07;;;8.40;99.90;;;;;;5094100;28;20459;-78
2021/12/19 10:55:55;;;;;;;140.97;17.77;;;8.40;99.90;;;;;;5088826;28;20471;-76
2021/12/19 10:58:34;;;;;;;231.43;37.37;;;8.40;99.90;;;;;;5096138;28;20570;-77
2021/12/19 11:01:07;;;;;;;200.07;29.13;;;8.40;99.90;;;;;;5093119;28;20435;-77
2021/12/19 11:03:41;;;;;;;402.57;38.67;;;8.40;99.90;;;;;;5093288;28;20491;-76
2021/12/19 11:06:24;;;;;;;176.97;17.03;;;8.50;99.90;;;;;;5092064;28;20789;-77
2021/12/19 11:08:54;;;;;;;322.40;41.30;;;8.50;99.90;;;;;;5091812;28;20447;-76
2021/12/19 11:11:41;;;;;;;259.70;27.33;;;8.50;99.90;;;;;;5091676;28;20440;-76
2021/12/19 11:14:12;;;;;;;370.57;44.97;;;8.50;99.90;;;;;;5091581;28;20496;-76
2021/12/19 11:16:41;;;;;;;160.17;21.97;;;8.50;99.90;;;;;;5091683;28;21025;-78
2021/12/19 11:19:11;;;;;;;191.43;27.17;;;8.50;99.90;;;;;;5092678;28;20443;-78
2021/12/19 11:21:39;;;;;;;358.03;40.43;;;8.50;99.90;;;;;;5092704;28;20505;-78
2021/12/19 11:24:10;;;;;;;331.10;43.83;;;8.60;99.90;;;;;;5091963;28;20479;-78
2021/12/19 11:26:40;;;;;;;353.90;41.73;;;8.60;99.90;;;;;;5091681;28;20479;-77
2021/12/19 11:29:09;;;;;;;246.43;32.90;;;8.50;99.90;;;;;;5092879;28;20847;-77
2021/12/19 11:31:39;;;;;;;299.80;23.80;;;8.60;99.90;;;;;;5091584;28;20512;-77
2021/12/19 11:34:19;;;;;;;305.97;42.20;;;8.60;99.90;;;;;;5091499;28;20451;-77
2021/12/19 11:36:52;;;;;;;321.87;36.97;;;8.60;99.90;;;;;;5091475;28;20844;-77
2021/12/19 11:39:25;;;;;;;349.90;39.60;;;8.60;99.90;;;;;;5093232;28;20542;-77
2021/12/19 11:42:09;;;;;;;209.70;27.80;;;8.60;99.90;;;;;;5096754;28;20519;-77
2021/12/19 11:44:46;;;;;;;215.50;36.87;;;8.60;99.90;;;;;;5095223;28;20981;-77
2021/12/19 11:47:35;;;;;;;188.97;37.70;;;8.70;99.90;;;;;;5095825;28;20466;-77
2021/12/19 11:50:21;;;;;;;202.13;28.70;;;8.60;99.90;;;;;;5095132;28;20448;-77
2021/12/19 11:52:51;;;;;;;439.00;59.93;;;8.70;99.90;;;;;;5094822;28;20456;-77
2021/12/19 11:55:23;;;;;;;420.73;54.00;;;8.70;99.90;;;;;;5094917;28;20472;-77
2021/12/19 11:58:17;;;;;;;316.43;31.87;;;8.70;99.90;;;;;;5094628;28;20466;-77
2021/12/19 12:00:50;;;;;;;243.67;31.73;;;8.70;99.90;;;;;;5094917;28;20531;-77
2021/12/19 12:03:26;;;;;;;350.63;41.37;;;8.70;99.90;;;;;;5096566;28;20465;-77
2021/12/19 12:06:24;;;;;;;333.27;19.80;;;8.70;99.90;;;;;;5097498;28;20442;-76
2021/12/19 12:09:10;;;;;;;262.17;41.47;;;8.70;99.90;;;;;;5095541;28;20488;-76
2021/12/19 12:11:40;;;;;;;167.33;27.90;;;8.80;99.90;;;;;;5096100;28;20454;-76
2021/12/19 12:15:10;;;;;;;272.77;31.70;;;8.80;99.90;;;;;;5097727;28;20479;-77
2021/12/19 12:18:52;;;;;;;144.37;24.07;;;8.80;99.90;;;;;;5022460;28;20996;-77
2021/12/19 12:21:29;;;;;;;345.40;36.30;;;8.80;99.90;;;;;;5097042;28;20424;-77
2021/12/19 12:24:00;;;;;;;226.10;26.47;;;8.80;99.90;;;;;;5096618;28;20447;-76
2021/12/19 12:26:36;;;;;;;165.50;18.70;;;8.80;99.90;;;;;;5096968;28;20504;-76
2021/12/19 12:29:04;;;;;;;268.50;40.00;;;8.70;99.90;;;;;;5095599;28;20936;-77
2021/12/19 12:31:33;;;;;;;342.13;43.63;;;8.80;99.90;;;;;;5095418;28;20454;-75
2021/12/19 12:34:02;;;;;;;235.53;49.47;;;8.80;99.90;;;;;;5083184;28;20497;-77
2021/12/19 12:36:32;;;;;;;479.03;43.63;;;8.80;99.90;;;;;;5075281;28;20475;-78
2021/12/19 12:39:05;;;;;;;290.80;35.63;;;8.70;99.90;;;;;;5092001;28;20450;-77
2021/12/19 12:41:47;;;;;;;245.97;24.63;;;8.70;99.90;;;;;;5076532;28;20504;-77
2021/12/19 12:44:17;;;;;;;164.77;33.40;;;8.70;99.90;;;;;;5076755;28;20424;-77
2021/12/19 12:46:47;;;;;;;176.50;27.77;;;8.70;99.90;;;;;;5076436;28;20470;-77
2021/12/19 12:49:17;;;;;;;217.33;32.53;;;8.70;99.90;;;;;;5076995;28;20429;-78
2021/12/19 12:51:48;;;;;;;196.83;21.33;;;8.70;99.90;;;;;;5075002;28;20445;-77
2021/12/19 12:54:20;;;;;;;244.33;41.80;;;8.70;99.90;;;;;;5077824;28;20464;-77
2021/12/19 12:56:52;;;;;;;184.37;34.43;;;8.70;99.90;;;;;;5078303;28;20504;-78
2021/12/19 12:59:21;;;;;;;146.13;15.17;;;8.70;99.90;;;;;;5075907;28;20448;-76
2021/12/19 13:01:53;;;;;;;374.70;58.80;;;8.60;99.90;;;;;;5080991;28;20539;-76
2021/12/19 13:04:22;;;;;;;333.43;39.07;;;8.60;99.90;;;;;;5091854;28;20463;-77
2021/12/19 13:07:04;;;;;;;295.57;32.63;;;8.60;99.90;;;;;;5086209;28;20476;-77
2021/12/19 13:09:40;;;;;;;182.47;20.47;;;8.60;99.90;;;;;;5078714;28;20464;-77
2021/12/19 13:12:12;;;;;;;276.70;34.17;;;8.60;99.90;;;;;;5078020;28;20516;-76
2021/12/19 13:14:42;;;;;;;267.67;35.23;;;8.60;99.90;;;;;;5077131;28;20548;-75
2021/12/19 13:17:13;;;;;;;224.83;20.37;;;8.60;99.90;;;;;;5075173;28;20496;-76
2021/12/19 13:19:50;;;;;;;173.70;27.53;;;8.60;99.90;;;;;;5074998;28;20822;-77
2021/12/19 13:22:26;;;;;;;351.77;42.93;;;8.60;99.90;;;;;;5077031;28;20463;-77
2021/12/19 13:24:56;;;;;;;274.90;23.53;;;8.70;99.90;;;;;;5079047;28;20471;-77
2021/12/19 13:27:27;;;;;;;156.77;26.07;;;8.60;99.90;;;;;;5074587;28;20476;-76
2021/12/19 13:30:10;;;;;;;196.00;26.60;;;8.60;99.90;;;;;;5074633;28;20892;-76
2021/12/19 13:32:39;;;;;;;178.10;35.60;;;8.70;99.90;;;;;;5073808;28;20448;-77
2021/12/19 13:35:13;;;;;;;128.40;18.07;;;8.70;99.90;;;;;;5086930;28;20547;-77
2021/12/19 13:37:56;;;;;;;393.40;39.07;;;8.70;99.90;;;;;;5075785;28;20552;-76
2021/12/19 13:40:26;;;;;;;172.33;23.30;;;8.70;99.90;;;;;;5074136;28;20481;-77
2021/12/19 13:42:59;;;;;;;192.27;26.90;;;8.80;99.90;;;;;;5074122;28;20956;-77
2021/12/19 13:45:32;;;;;;;305.50;32.40;;;8.70;99.90;;;;;;5083913;28;20460;-77